Time;durP1;ratioP1;P1;durP2;ratioP2;P2;SDS_P1;SDS_P2;PMS_P1;PMS_P2;Temp;Humidity;BMP_temperature;BMP_pressure;BME280_temperature;BME280_humidity;BME280_pressure;Samples;Min_cycle;Max_cycle;Signal;HPM_P1;HPM_P2
2021/06/21 00:00:57;;;;;;;9.45;2.95;;;;;;;15.79;100.00;95414.81;5043992;28;20115;-77
2021/06/21 00:03:23;;;;;;;9.43;1.90;;;;;;;15.75;100.00;95418.94;5039805;28;20458;-77
2021/06/21 00:05:49;;;;;;;6.80;1.67;;;;;;;15.77;100.00;95424.84;5050219;28;20170;-77
2021/06/21 00:08:15;;;;;;;11.05;2.75;;;;;;;15.79;100.00;95428.09;5068538;28;20028;-78
2021/06/21 00:10:41;;;;;;;5.47;1.45;;;;;;;15.86;100.00;95418.28;5037738;28;20021;-78
2021/06/21 00:13:08;;;;;;;6.55;1.73;;;;;;;15.88;100.00;95429.47;5042662;28;20029;-78
2021/06/21 00:15:34;;;;;;;10.40;1.85;;;;;;;15.86;100.00;95436.00;5044270;28;20024;-78
2021/06/21 00:17:59;;;;;;;8.70;2.05;;;;;;;15.85;100.00;95439.69;5043718;28;20058;-77
2021/06/21 00:20:26;;;;;;;12.63;2.08;;;;;;;15.86;100.00;95447.44;5041783;28;20033;-77
2021/06/21 00:22:53;;;;;;;16.67;2.35;;;;;;;15.73;100.00;95452.81;5061277;28;20025;-77
2021/06/21 00:25:20;;;;;;;9.82;1.80;;;;;;;15.74;100.00;95457.88;5046430;28;20134;-77
2021/06/21 00:27:46;;;;;;;8.07;1.92;;;;;;;15.78;100.00;95447.66;5051906;28;20036;-77
2021/06/21 00:30:14;;;;;;;6.40;2.63;;;;;;;15.85;100.00;95440.50;5063833;28;20032;-77
2021/06/21 00:32:42;;;;;;;11.95;3.42;;;;;;;15.89;100.00;95427.63;5061520;28;20363;-77
2021/06/21 00:35:09;;;;;;;6.68;1.92;;;;;;;15.95;100.00;95434.75;5045897;28;20024;-77
2021/06/21 00:37:35;;;;;;;8.23;1.92;;;;;;;16.01;100.00;95433.91;5057303;28;20031;-77
2021/06/21 00:40:03;;;;;;;6.80;2.13;;;;;;;16.00;100.00;95438.38;5052735;28;20032;-77
2021/06/21 00:42:29;;;;;;;8.52;1.92;;;;;;;16.09;100.00;95438.94;5045393;28;20078;-77
2021/06/21 00:44:55;;;;;;;9.35;1.85;;;;;;;16.12;100.00;95440.34;5044250;28;20418;-78
2021/06/21 00:47:21;;;;;;;6.55;1.85;;;;;;;16.09;100.00;95438.13;5048793;28;20579;-77
2021/06/21 00:49:46;;;;;;;7.38;2.20;;;;;;;16.06;100.00;95435.91;5049359;28;20104;-77
2021/06/21 00:52:17;;;;;;;8.48;2.45;;;;;;;16.09;100.00;95432.81;5027024;28;20029;-77
2021/06/21 00:54:44;;;;;;;6.13;2.15;;;;;;;16.03;100.00;95432.66;5028040;28;20063;-77
2021/06/21 00:57:11;;;;;;;11.95;2.30;;;;;;;15.98;100.00;95432.47;5043569;28;21019;-77
2021/06/21 00:59:36;;;;;;;4.78;1.52;;;;;;;15.98;100.00;95429.00;5041234;28;20028;-77
2021/06/21 01:02:03;;;;;;;7.28;1.85;;;;;;;15.95;100.00;95432.09;5055703;28;20035;-77
2021/06/21 01:04:28;;;;;;;8.32;2.03;;;;;;;15.98;100.00;95445.72;5045861;28;20040;-77
2021/06/21 01:06:55;;;;;;;6.40;1.40;;;;;;;15.89;100.00;95435.59;5042167;28;20026;-77
2021/06/21 01:09:23;;;;;;;6.85;1.75;;;;;;;15.92;100.00;95446.56;5047028;28;20037;-77
2021/06/21 01:11:55;;;;;;;6.75;1.38;;;;;;;15.88;100.00;95436.63;5043501;28;20020;-77
2021/06/21 01:14:27;;;;;;;3.20;0.93;;;;;;;15.86;100.00;95431.53;5044848;28;20448;-77
2021/06/21 01:17:11;;;;;;;5.82;1.30;;;;;;;15.93;100.00;95434.16;5043608;28;20471;-77
2021/06/21 01:20:18;;;;;;;8.60;1.90;;;;;;;15.85;100.00;95442.34;5052836;28;20036;-76
2021/06/21 01:23:03;;;;;;;7.95;1.30;;;;;;;15.88;100.00;95449.88;5002513;28;20033;-77
2021/06/21 01:25:37;;;;;;;12.20;1.65;;;;;;;15.75;100.00;95454.19;5009015;28;20037;-77
2021/06/21 01:28:40;;;;;;;11.75;1.90;;;;;;;15.67;100.00;95446.50;5036214;28;20052;-78
2021/06/21 01:31:19;;;;;;;9.50;1.63;;;;;;;15.67;100.00;95449.16;5046965;28;20037;-77
2021/06/21 01:33:47;;;;;;;7.22;1.48;;;;;;;15.52;100.00;95452.00;5054898;28;20025;-77
2021/06/21 01:36:16;;;;;;;9.63;2.25;;;;;;;15.45;100.00;95461.00;5046609;28;20096;-77
2021/06/21 01:38:45;;;;;;;5.95;1.42;;;;;;;15.43;100.00;95457.78;5047667;28;20045;-77
2021/06/21 01:41:28;;;;;;;8.87;1.90;;;;;;;15.39;100.00;95459.19;5045191;28;20037;-77
2021/06/21 01:43:56;;;;;;;8.13;1.67;;;;;;;15.37;100.00;95464.72;5047912;28;20037;-77
2021/06/21 01:46:28;;;;;;;6.93;1.67;;;;;;;15.39;100.00;95469.78;5048225;28;20025;-77
2021/06/21 01:48:58;;;;;;;6.57;2.00;;;;;;;15.38;100.00;95468.16;5048631;28;20033;-77
2021/06/21 01:51:28;;;;;;;8.00;1.75;;;;;;;15.41;100.00;95467.75;5047448;28;20029;-77
2021/06/21 01:53:58;;;;;;;9.57;1.50;;;;;;;15.48;100.00;95463.25;5046139;28;20030;-77
2021/06/21 01:56:29;;;;;;;6.63;1.83;;;;;;;15.48;100.00;95452.66;5063578;28;20386;-77
2021/06/21 01:58:57;;;;;;;8.20;1.50;;;;;;;15.43;100.00;95447.97;5047426;28;20103;-78
2021/06/21 02:01:24;;;;;;;9.27;1.85;;;;;;;15.43;100.00;95452.47;5050575;28;20039;-77
2021/06/21 02:03:54;;;;;;;11.30;1.85;;;;;;;15.47;100.00;95443.09;5049059;28;20032;-78
2021/06/21 02:06:25;;;;;;;9.45;2.08;;;;;;;15.45;100.00;95461.00;5050225;28;20122;-77
2021/06/21 02:08:51;;;;;;;6.35;1.70;;;;;;;15.45;100.00;95456.53;5049850;28;20178;-76
2021/06/21 02:11:18;;;;;;;7.32;1.80;;;;;;;15.46;100.00;95463.47;5049493;28;20025;-77
2021/06/21 02:13:45;;;;;;;9.77;2.25;;;;;;;15.47;100.00;95456.31;5050303;28;20037;-77
2021/06/21 02:16:13;;;;;;;10.88;2.17;;;;;;;15.42;100.00;95446.34;5049616;28;20064;-77
2021/06/21 02:18:40;;;;;;;11.60;1.67;;;;;;;15.48;100.00;95450.81;5049516;28;20178;-77
2021/06/21 02:21:06;;;;;;;11.00;1.95;;;;;;;15.50;100.00;95454.06;5048821;28;20083;-77
2021/06/21 02:23:32;;;;;;;7.88;1.75;;;;;;;15.53;100.00;95444.91;5056147;28;20032;-77
2021/06/21 02:25:59;;;;;;;10.27;1.85;;;;;;;15.51;100.00;95447.75;5043984;28;20526;-77
2021/06/21 02:28:27;;;;;;;5.25;1.70;;;;;;;15.52;100.00;95443.25;5049053;28;20482;-77
2021/06/21 02:30:57;;;;;;;5.68;1.63;;;;;;;15.50;100.00;95447.97;5051338;28;20086;-77
2021/06/21 02:33:23;;;;;;;8.23;1.60;;;;;;;15.47;100.00;95451.03;5027029;28;20037;-77
2021/06/21 02:35:48;;;;;;;7.47;2.00;;;;;;;15.50;100.00;95458.56;5054632;28;20721;-77
2021/06/21 02:38:15;;;;;;;6.82;1.60;;;;;;;15.51;100.00;95463.63;5049073;28;20390;-77
2021/06/21 02:40:41;;;;;;;8.52;1.77;;;;;;;15.48;100.00;95460.59;5049596;28;20484;-76
2021/06/21 02:43:06;;;;;;;9.50;2.08;;;;;;;15.47;100.00;95464.28;5067437;28;20036;-77
2021/06/21 02:45:33;;;;;;;12.70;2.13;;;;;;;15.47;100.00;95464.28;5049813;28;20103;-77
2021/06/21 02:48:01;;;;;;;14.27;3.00;;;;;;;15.40;100.00;95469.59;5045226;28;20394;-77
2021/06/21 02:50:27;;;;;;;13.38;2.05;;;;;;;15.40;100.00;95471.44;5044521;28;20063;-77
2021/06/21 02:53:26;;;;;;;9.15;2.03;;;;;;;15.41;100.00;95479.16;5049139;28;20033;-77
2021/06/21 02:55:54;;;;;;;8.55;2.17;;;;;;;15.43;100.00;95478.97;5043605;28;20041;-77
2021/06/21 02:58:27;;;;;;;7.53;2.08;;;;;;;15.44;100.00;95485.88;5049071;28;20112;-77
2021/06/21 03:00:57;;;;;;;15.57;3.00;;;;;;;15.36;100.00;95488.75;5048793;28;20037;-77
2021/06/21 03:03:26;;;;;;;12.27;2.22;;;;;;;15.28;100.00;95493.25;5046668;28;20021;-77
2021/06/21 03:05:53;;;;;;;9.77;1.90;;;;;;;15.29;100.00;95497.53;5047417;28;20116;-77
2021/06/21 03:08:21;;;;;;;10.13;2.53;;;;;;;15.26;100.00;95490.00;5046546;28;20124;-77
2021/06/21 03:10:50;;;;;;;19.15;2.72;;;;;;;15.22;100.00;95499.34;5044408;28;20409;-77
2021/06/21 03:13:19;;;;;;;7.38;1.80;;;;;;;15.14;100.00;95512.81;5044905;28;20076;-77
2021/06/21 03:15:45;;;;;;;10.98;2.00;;;;;;;15.17;100.00;95516.91;5059326;28;20060;-77
2021/06/21 03:18:13;;;;;;;12.35;2.42;;;;;;;15.18;100.00;95519.34;5045573;28;20105;-77
2021/06/21 03:20:38;;;;;;;11.55;2.08;;;;;;;15.19;100.00;95522.78;5046140;28;20436;-77
2021/06/21 03:23:05;;;;;;;12.43;2.40;;;;;;;15.24;100.00;95515.06;5049181;28;20147;-77
2021/06/21 03:25:33;;;;;;;7.90;1.92;;;;;;;15.14;100.00;95520.78;5028770;28;20044;-77
2021/06/21 03:28:07;;;;;;;8.60;1.95;;;;;;;15.07;99.71;95512.03;5045007;28;20437;-78
2021/06/21 03:30:34;;;;;;;12.68;1.77;;;;;;;15.01;100.00;95512.84;5045980;28;20410;-78
2021/06/21 03:33:00;;;;;;;10.65;2.15;;;;;;;15.02;100.00;95503.88;5044905;28;20040;-77
2021/06/21 03:35:28;;;;;;;10.93;2.30;;;;;;;15.04;100.00;95507.13;5046085;28;20033;-77
2021/06/21 03:37:53;;;;;;;9.50;1.85;;;;;;;15.11;100.00;95521.19;5045282;28;20029;-77
2021/06/21 03:40:20;;;;;;;5.53;1.75;;;;;;;15.08;100.00;95513.66;5044868;28;20091;-77
2021/06/21 03:42:46;;;;;;;8.73;2.30;;;;;;;15.10;100.00;95519.56;5045467;28;20115;-77
2021/06/21 03:45:12;;;;;;;8.90;1.80;;;;;;;15.01;100.00;95528.72;5045992;28;20112;-76
2021/06/21 03:47:40;;;;;;;15.77;2.35;;;;;;;14.77;100.00;95523.00;5046332;28;20029;-76
2021/06/21 03:50:07;;;;;;;8.25;2.50;;;;;;;14.67;100.00;95522.59;5045853;28;20044;-76
2021/06/21 03:52:33;;;;;;;10.00;1.70;;;;;;;14.72;100.00;95524.63;5045669;28;20041;-77
2021/06/21 03:55:09;;;;;;;10.13;2.77;;;;;;;14.70;100.00;95524.84;5045289;28;20552;-77
2021/06/21 03:57:40;;;;;;;10.93;2.28;;;;;;;14.71;100.00;95520.34;5046060;28;20029;-77
2021/06/21 04:00:10;;;;;;;7.88;2.40;;;;;;;14.86;100.00;95518.34;5045662;28;20033;-78
2021/06/21 04:02:37;;;;;;;13.17;2.73;;;;;;;15.00;100.00;95511.22;5051690;28;20029;-77
2021/06/21 04:05:03;;;;;;;11.67;2.10;;;;;;;15.07;100.00;95515.47;5046468;28;20032;-77
2021/06/21 04:07:29;;;;;;;9.32;2.13;;;;;;;15.15;100.00;95522.41;5058983;28;20056;-77
2021/06/21 04:09:55;;;;;;;11.40;2.85;;;;;;;15.05;100.00;95524.63;5046330;28;20394;-77
2021/06/21 04:12:23;;;;;;;9.25;2.20;;;;;;;15.12;100.00;95527.28;5062700;28;20037;-77
2021/06/21 04:14:49;;;;;;;8.60;2.07;;;;;;;15.29;99.96;95517.91;5047643;28;20028;-77
2021/06/21 04:17:15;;;;;;;9.55;2.17;;;;;;;15.48;100.00;95514.41;5064606;28;20067;-77
2021/06/21 04:19:40;;;;;;;8.68;2.00;;;;;;;15.54;100.00;95512.78;5045468;28;20055;-77
2021/06/21 04:22:06;;;;;;;11.35;2.67;;;;;;;15.52;99.06;95520.91;5047443;28;20042;-77
2021/06/21 04:24:32;;;;;;;6.45;2.25;;;;;;;15.74;99.69;95526.00;5050722;28;20452;-77
2021/06/21 04:26:58;;;;;;;10.88;2.55;;;;;;;15.88;99.86;95518.81;5044883;28;20041;-77
2021/06/21 04:29:24;;;;;;;10.32;2.10;;;;;;;15.94;98.95;95524.09;5027956;28;20053;-77
2021/06/21 04:31:50;;;;;;;11.77;3.13;;;;;;;16.06;99.11;95526.06;5044468;28;20063;-77
2021/06/21 04:34:16;;;;;;;7.47;2.45;;;;;;;16.16;99.26;95519.31;5044837;28;20033;-77
2021/06/21 04:36:42;;;;;;;8.32;2.70;;;;;;;16.23;99.51;95521.91;5044450;28;20052;-77
2021/06/21 04:39:08;;;;;;;10.43;2.28;;;;;;;16.32;99.65;95506.56;5050606;28;20056;-77
2021/06/21 04:41:33;;;;;;;11.02;3.33;;;;;;;16.41;97.76;95515.91;5044038;28;20024;-77
2021/06/21 04:43:59;;;;;;;12.05;4.65;;;;;;;16.40;96.66;95517.75;5046004;28;20071;-77
2021/06/21 04:46:25;;;;;;;11.00;3.60;;;;;;;16.25;97.99;95518.03;5048586;28;20121;-76
2021/06/21 04:48:52;;;;;;;9.60;2.40;;;;;;;15.97;100.00;95512.25;5044200;28;20159;-77
2021/06/21 04:51:20;;;;;;;9.60;2.55;;;;;;;15.90;99.97;95512.28;5045213;28;20024;-77
2021/06/21 04:53:47;;;;;;;10.90;2.38;;;;;;;16.01;98.37;95518.75;5045094;28;20017;-77
2021/06/21 04:56:13;;;;;;;12.50;2.65;;;;;;;15.96;98.13;95516.75;5044079;28;20136;-77
2021/06/21 04:58:39;;;;;;;13.93;3.25;;;;;;;16.20;98.18;95528.47;5044276;28;20028;-76
2021/06/21 05:01:06;;;;;;;10.45;2.47;;;;;;;16.40;96.37;95535.53;5053998;28;20051;-77
2021/06/21 05:03:33;;;;;;;11.50;2.78;;;;;;;16.54;95.04;95539.72;5043751;28;20013;-77
2021/06/21 05:05:59;;;;;;;11.23;2.35;;;;;;;16.78;94.70;95540.00;5044324;28;20550;-77
2021/06/21 05:08:26;;;;;;;9.00;2.30;;;;;;;16.84;93.16;95561.22;5044499;28;20049;-77
2021/06/21 05:10:52;;;;;;;9.68;2.17;;;;;;;16.89;91.64;95541.97;5055828;28;20028;-77
2021/06/21 05:13:18;;;;;;;8.43;1.90;;;;;;;17.11;91.51;95543.25;5032339;28;20028;-77
2021/06/21 05:15:44;;;;;;;18.05;3.55;;;;;;;17.37;91.40;95544.84;5050984;28;20538;-77
2021/06/21 05:18:11;;;;;;;10.35;1.83;;;;;;;17.61;89.24;95545.84;5056598;28;20517;-77
2021/06/21 05:20:37;;;;;;;11.02;2.47;;;;;;;17.89;86.31;95544.56;5070517;28;20104;-77
2021/06/21 05:23:03;;;;;;;10.80;1.90;;;;;;;18.12;84.57;95546.56;5051115;28;20071;-77
2021/06/21 05:25:32;;;;;;;7.50;2.10;;;;;;;18.32;85.75;95541.78;5050854;28;20086;-77
2021/06/21 05:27:58;;;;;;;10.07;2.22;;;;;;;18.50;83.35;95524.16;5043319;28;20029;-76
2021/06/21 05:30:24;;;;;;;10.38;2.13;;;;;;;18.81;82.19;95533.75;5050504;28;20048;-78
2021/06/21 05:32:50;;;;;;;8.65;2.00;;;;;;;18.88;84.03;95529.19;5050131;28;20620;-78
2021/06/21 05:35:15;;;;;;;8.40;1.90;;;;;;;18.92;82.34;95530.34;5053644;28;20032;-77
2021/06/21 05:37:41;;;;;;;8.10;2.28;;;;;;;18.97;83.46;95527.78;5043634;28;20037;-77
2021/06/21 05:40:07;;;;;;;11.77;2.67;;;;;;;19.05;82.32;95535.47;5049860;28;20029;-77
2021/06/21 05:42:33;;;;;;;9.95;2.85;;;;;;;19.02;84.34;95541.25;5049095;28;20037;-77
2021/06/21 05:44:59;;;;;;;10.75;2.90;;;;;;;19.28;83.24;95544.50;5048331;28;20027;-77
2021/06/21 05:47:25;;;;;;;11.02;2.53;;;;;;;19.46;79.55;95541.75;5065463;28;20113;-77
2021/06/21 05:49:51;;;;;;;12.10;2.22;;;;;;;19.40;81.53;95544.53;5041353;28;20033;-77
2021/06/21 05:52:16;;;;;;;8.80;2.47;;;;;;;19.37;80.71;95535.13;5046464;28;20091;-77
2021/06/21 05:54:42;;;;;;;9.02;2.08;;;;;;;19.41;79.88;95533.63;5047946;28;20111;-77
2021/06/21 05:57:08;;;;;;;9.13;1.98;;;;;;;19.19;80.17;95537.91;5046037;28;20616;-77
2021/06/21 05:59:34;;;;;;;10.40;4.22;;;;;;;19.67;79.13;95532.38;5057375;28;20040;-77
2021/06/21 06:02:00;;;;;;;11.05;2.85;;;;;;;19.42;79.61;95543.25;5047560;28;20032;-77
2021/06/21 06:04:25;;;;;;;7.55;1.67;;;;;;;19.37;81.32;95531.66;5047140;28;20390;-77
2021/06/21 06:06:51;;;;;;;5.72;1.80;;;;;;;19.52;79.82;95530.16;5048035;28;20028;-76
2021/06/21 06:09:17;;;;;;;8.20;2.28;;;;;;;19.36;80.20;95530.03;5046682;28;20107;-78
2021/06/21 06:11:42;;;;;;;10.07;1.92;;;;;;;20.18;78.81;95527.28;5054350;28;20710;-77
2021/06/21 06:14:08;;;;;;;9.20;2.17;;;;;;;20.62;78.04;95522.28;5053422;28;20025;-77
2021/06/21 06:16:34;;;;;;;7.53;1.70;;;;;;;21.27;74.66;95519.13;5046840;28;20672;-77
2021/06/21 06:19:00;;;;;;;10.32;2.38;;;;;;;21.53;73.12;95530.22;5047096;28;20033;-77
2021/06/21 06:21:29;;;;;;;12.90;1.98;;;;;;;20.98;75.33;95545.09;5046322;28;20064;-77
2021/06/21 06:23:57;;;;;;;6.22;1.60;;;;;;;21.64;72.72;95540.84;5045089;28;20037;-77
2021/06/21 06:26:22;;;;;;;5.53;1.25;;;;;;;21.66;71.35;95537.91;5047280;28;20071;-77
2021/06/21 06:28:48;;;;;;;13.98;1.75;;;;;;;22.34;67.66;95542.03;5046302;28;20060;-77
2021/06/21 06:31:14;;;;;;;10.57;2.00;;;;;;;22.31;67.73;95547.91;5047761;28;20557;-77
2021/06/21 06:33:40;;;;;;;14.52;1.83;;;;;;;22.51;68.42;95557.25;5046119;28;20032;-78
2021/06/21 06:36:06;;;;;;;10.25;2.67;;;;;;;22.63;66.02;95560.56;5025666;28;20048;-77
2021/06/21 06:38:33;;;;;;;12.02;3.00;;;;;;;22.80;66.00;95549.75;5045945;28;20482;-78
2021/06/21 06:41:01;;;;;;;10.45;2.25;;;;;;;22.05;65.91;95551.28;5030306;28;20047;-78
2021/06/21 06:43:27;;;;;;;12.10;2.15;;;;;;;22.01;67.34;95547.50;5047246;28;20029;-77
2021/06/21 06:45:52;;;;;;;7.45;1.95;;;;;;;22.68;67.57;95557.16;5048180;28;20037;-77
2021/06/21 06:48:18;;;;;;;9.30;2.53;;;;;;;23.36;64.48;95554.84;5047945;28;20032;-77
2021/06/21 06:50:44;;;;;;;10.45;2.67;;;;;;;23.27;64.06;95557.19;5024784;28;20659;-77
2021/06/21 06:53:10;;;;;;;7.82;2.38;;;;;;;24.00;61.61;95546.72;5047309;28;20039;-78
2021/06/21 06:58:20;;;;;;;13.93;2.25;;;;;;;23.92;61.83;95557.97;5049082;28;20401;-78
2021/06/21 07:00:46;;;;;;;10.75;2.30;;;;;;;24.08;59.67;95567.72;5048096;28;20028;-77
2021/06/21 07:03:12;;;;;;;6.90;1.73;;;;;;;23.66;60.98;95568.50;5046616;28;20052;-78
2021/06/21 07:05:38;;;;;;;6.28;2.13;;;;;;;22.96;62.17;95573.00;5051723;28;20028;-77
2021/06/21 07:08:04;;;;;;;11.88;2.42;;;;;;;23.42;63.60;95561.88;5046096;28;20033;-78
2021/06/21 07:10:30;;;;;;;9.80;2.08;;;;;;;23.23;62.01;95564.94;5031183;28;20048;-78
2021/06/21 07:12:56;;;;;;;8.38;2.42;;;;;;;23.24;63.64;95568.47;5047007;28;20079;-77
2021/06/21 07:15:22;;;;;;;11.50;3.30;;;;;;;23.03;63.34;95554.03;5047128;28;20750;-78
2021/06/21 07:17:48;;;;;;;8.70;3.55;;;;;;;22.51;63.86;95557.25;5029129;28;20037;-77
2021/06/21 07:20:14;;;;;;;9.00;2.03;;;;;;;22.49;63.67;95560.16;5039595;28;20028;-77
2021/06/21 07:22:40;;;;;;;13.40;2.50;;;;;;;22.20;64.20;95556.03;5046885;28;20056;-78
2021/06/21 07:25:06;;;;;;;9.43;2.05;;;;;;;23.17;61.05;95563.31;5046873;28;20453;-77
2021/06/21 07:27:32;;;;;;;6.88;1.58;;;;;;;22.59;65.47;95564.81;5038258;28;20116;-78
2021/06/21 07:29:58;;;;;;;7.65;1.55;;;;;;;23.91;59.90;95554.47;5034455;28;20108;-78
2021/06/21 07:32:23;;;;;;;8.45;1.70;;;;;;;24.37;57.92;95554.69;5053678;28;20024;-78
2021/06/21 07:34:49;;;;;;;8.88;1.80;;;;;;;23.03;61.52;95565.56;5046184;28;20027;-77
2021/06/21 07:37:15;;;;;;;7.85;2.60;;;;;;;22.68;63.90;95571.38;5046378;28;20055;-78
2021/06/21 07:39:41;;;;;;;7.90;2.45;;;;;;;23.58;60.74;95577.03;5046172;28;20409;-79
2021/06/21 07:42:07;;;;;;;9.82;1.85;;;;;;;24.49;55.03;95567.13;5039049;28;20036;-79
2021/06/21 07:44:34;;;;;;;6.97;2.03;;;;;;;25.05;55.77;95569.94;5060036;28;20097;-79
2021/06/21 07:47:00;;;;;;;6.88;1.50;;;;;;;25.80;54.13;95575.69;5049485;28;20102;-79
2021/06/21 07:49:26;;;;;;;9.20;2.03;;;;;;;26.06;52.15;95574.56;5039778;28;20099;-79
2021/06/21 07:51:52;;;;;;;8.95;1.80;;;;;;;26.92;49.47;95574.50;5041009;28;20035;-80
2021/06/21 07:54:19;;;;;;;6.60;1.88;;;;;;;26.46;48.05;95567.41;5048487;28;20075;-79
2021/06/21 07:56:45;;;;;;;8.38;2.42;;;;;;;26.60;48.84;95566.84;5056705;28;20096;-80
2021/06/21 07:59:11;;;;;;;7.88;1.73;;;;;;;27.35;47.50;95564.78;5049377;28;20063;-79
2021/06/21 08:01:37;;;;;;;8.23;1.92;;;;;;;27.53;48.06;95562.47;5031775;28;20025;-79
2021/06/21 08:04:07;;;;;;;8.85;1.77;;;;;;;27.76;47.30;95559.06;5049360;28;20052;-80
2021/06/21 08:06:33;;;;;;;8.32;1.73;;;;;;;27.24;44.94;95566.75;5033435;28;20119;-80
2021/06/21 08:08:59;;;;;;;6.85;1.50;;;;;;;27.42;46.70;95554.47;5044663;28;20086;-79
2021/06/21 08:11:25;;;;;;;5.68;1.70;;;;;;;29.05;42.95;95546.47;5049416;28;20037;-79
2021/06/21 08:13:51;;;;;;;7.90;1.90;;;;;;;28.83;43.81;95547.03;5032683;28;20033;-81
2021/06/21 08:16:16;;;;;;;5.97;2.08;;;;;;;28.26;42.85;95546.09;5061290;28;20025;-80
2021/06/21 08:18:42;;;;;;;7.93;2.70;;;;;;;29.78;39.71;95553.19;5049391;28;20025;-80
2021/06/21 08:21:08;;;;;;;6.78;1.75;;;;;;;28.31;41.58;95556.88;5049248;28;20029;-79
2021/06/21 08:23:34;;;;;;;6.22;1.60;;;;;;;28.69;42.46;95567.78;5054542;28;20032;-80
2021/06/21 08:26:01;;;;;;;5.18;1.40;;;;;;;29.23;41.45;95568.41;5051317;28;20056;-79
2021/06/21 08:28:27;;;;;;;6.18;1.98;;;;;;;29.52;42.10;95576.38;5048367;28;20013;-80
2021/06/21 08:30:53;;;;;;;4.63;1.48;;;;;;;29.23;41.52;95566.50;5048836;28;20504;-77
2021/06/21 08:33:19;;;;;;;4.40;1.58;;;;;;;29.99;39.80;95561.75;5047738;28;20028;-80
2021/06/21 08:35:45;;;;;;;5.63;1.50;;;;;;;30.44;39.92;95561.22;5048327;28;20030;-79
2021/06/21 08:38:11;;;;;;;7.32;1.83;;;;;;;29.98;39.10;95559.34;5058453;28;20487;-80
2021/06/21 08:40:37;;;;;;;7.40;1.90;;;;;;;29.06;40.13;95561.63;5047853;28;20031;-81
2021/06/21 08:43:04;;;;;;;5.00;1.40;;;;;;;29.04;42.52;95563.84;5048781;28;20036;-80
2021/06/21 08:45:31;;;;;;;5.18;2.03;;;;;;;29.16;41.02;95557.16;5048124;28;20511;-80
2021/06/21 08:47:58;;;;;;;5.35;1.38;;;;;;;30.35;40.21;95542.13;5047769;28;20025;-80
2021/06/21 08:50:24;;;;;;;6.88;1.50;;;;;;;29.73;39.33;95547.84;5052498;28;20029;-79
2021/06/21 08:52:50;;;;;;;5.60;1.50;;;;;;;30.61;37.49;95544.31;5049530;28;20098;-81
2021/06/21 08:55:16;;;;;;;6.93;2.05;;;;;;;29.84;38.68;95556.59;5050846;28;20390;-80
2021/06/21 08:57:47;;;;;;;5.53;2.15;;;;;;;32.32;34.64;95555.19;5057708;28;20021;-79
2021/06/21 09:00:14;;;;;;;3.92;1.50;;;;;;;30.01;39.17;95556.03;5060001;28;20029;-80
2021/06/21 09:02:40;;;;;;;5.60;1.70;;;;;;;28.65;40.86;95558.66;5049566;28;20013;-79
2021/06/21 09:05:11;;;;;;;8.27;1.58;;;;;;;28.63;39.66;95564.34;5042301;28;20037;-80
2021/06/21 09:07:38;;;;;;;3.10;1.33;;;;;;;30.75;34.35;95554.06;5060226;28;20029;-79
2021/06/21 09:10:09;;;;;;;4.47;1.10;;;;;;;31.46;34.73;95553.59;5060708;28;20024;-80
2021/06/21 09:12:35;;;;;;;6.70;1.40;;;;;;;30.26;35.47;95550.16;5058337;28;20033;-81
2021/06/21 09:15:07;;;;;;;7.72;1.60;;;;;;;30.22;36.55;95553.78;5072538;28;20657;-81
2021/06/21 09:17:36;;;;;;;3.83;1.13;;;;;;;29.90;37.42;95560.84;5057955;28;20104;-81
2021/06/21 09:20:09;;;;;;;7.25;1.33;;;;;;;29.94;36.05;95547.47;5059862;28;20037;-81
2021/06/21 09:22:42;;;;;;;4.45;1.40;;;;;;;31.10;33.69;95548.97;5056772;28;20037;-81
2021/06/21 09:25:21;;;;;;;6.60;1.75;;;;;;;33.58;30.05;95546.28;5056626;28;20044;-80
2021/06/21 09:28:00;;;;;;;4.53;1.40;;;;;;;33.02;30.21;95542.59;5055874;28;20064;-82
2021/06/21 09:30:27;;;;;;;4.35;1.25;;;;;;;32.46;32.44;95547.72;5052351;28;20040;-82
2021/06/21 09:32:54;;;;;;;3.10;1.20;;;;;;;31.97;32.63;95552.31;5064690;28;20099;-82
2021/06/21 09:35:29;;;;;;;4.28;1.35;;;;;;;31.49;33.58;95552.97;5044865;28;20096;-81
2021/06/21 09:38:07;;;;;;;5.22;1.23;;;;;;;31.86;32.97;95548.25;5090205;28;20433;-81
2021/06/21 09:40:46;;;;;;;4.65;1.45;;;;;;;31.19;33.43;95552.56;5047031;28;20097;-80
2021/06/21 09:43:28;;;;;;;2.88;1.30;;;;;;;31.72;34.53;95555.66;5049848;28;20551;-81
2021/06/21 09:46:11;;;;;;;2.78;1.25;;;;;;;32.65;32.41;95544.75;5065737;28;20037;-82
2021/06/21 09:48:44;;;;;;;4.40;1.58;;;;;;;31.79;33.91;95551.41;5083881;28;20052;-82
2021/06/21 09:51:24;;;;;;;4.97;1.33;;;;;;;32.56;31.76;95547.47;5079697;28;20041;-82
2021/06/21 09:54:07;;;;;;;5.95;1.38;;;;;;;33.80;31.45;95548.00;5059505;28;20041;-82
2021/06/21 09:56:34;;;;;;;5.10;1.20;;;;;;;34.87;29.41;95544.19;5069727;28;20105;-80
2021/06/21 09:59:00;;;;;;;5.00;1.40;;;;;;;33.75;30.62;95554.44;5067913;28;20034;-82
2021/06/21 10:01:30;;;;;;;4.53;1.55;;;;;;;33.08;30.68;95561.19;5062312;28;20200;-82
2021/06/21 10:03:56;;;;;;;4.13;1.33;;;;;;;31.23;35.76;95563.59;5060419;28;20199;-82
2021/06/21 10:06:22;;;;;;;5.65;1.50;;;;;;;31.40;34.32;95562.97;5067959;28;20028;-81
2021/06/21 10:08:52;;;;;;;4.30;1.55;;;;;;;31.37;33.80;95560.88;5051087;28;20032;-82
2021/06/21 10:11:34;;;;;;;3.58;1.20;;;;;;;32.10;34.54;95567.75;5061075;28;20021;-82
2021/06/21 10:14:06;;;;;;;9.77;1.90;;;;;;;32.51;32.13;95555.75;5063402;28;20040;-81
2021/06/21 10:16:33;;;;;;;5.18;1.45;;;;;;;32.88;31.77;95553.59;5069836;28;20017;-82
2021/06/21 10:19:00;;;;;;;3.63;1.40;;;;;;;33.33;30.68;95553.31;5064078;28;20032;-81
2021/06/21 10:21:27;;;;;;;4.97;1.50;;;;;;;32.49;31.11;95546.31;5064740;28;20341;-82
2021/06/21 10:23:54;;;;;;;4.30;1.20;;;;;;;32.27;32.69;95552.63;5070702;28;20063;-82
2021/06/21 10:26:20;;;;;;;4.10;1.42;;;;;;;31.60;33.53;95551.59;5075151;28;20036;-83
2021/06/21 10:28:47;;;;;;;3.80;1.20;;;;;;;33.47;29.65;95542.28;5064531;28;20060;-81
2021/06/21 10:31:13;;;;;;;4.57;1.42;;;;;;;34.05;29.16;95543.63;5077359;28;20036;-81
2021/06/21 10:33:40;;;;;;;3.00;1.27;;;;;;;32.85;31.09;95546.84;5066568;28;20017;-82
2021/06/21 10:36:08;;;;;;;4.20;1.23;;;;;;;32.59;31.75;95541.34;5053869;28;20033;-82
2021/06/21 10:38:34;;;;;;;6.45;1.35;;;;;;;32.22;31.79;95550.81;5054858;28;20075;-81
2021/06/21 10:41:03;;;;;;;2.90;1.15;;;;;;;32.48;32.37;95545.50;5057311;28;21173;-81
2021/06/21 10:43:43;;;;;;;4.05;1.20;;;;;;;31.99;32.84;95549.28;5036661;28;20028;-81
2021/06/21 10:46:14;;;;;;;3.47;1.30;;;;;;;32.56;30.80;95542.03;5070102;28;20029;-82
2021/06/21 10:49:10;;;;;;;4.60;1.30;;;;;;;32.69;31.47;95545.72;5057398;28;20037;-82
2021/06/21 10:51:38;;;;;;;3.88;1.20;;;;;;;35.43;26.72;95547.47;5075100;28;20032;-81
2021/06/21 10:54:20;;;;;;;2.25;1.20;;;;;;;34.06;30.54;95541.69;5057710;28;20032;-81
2021/06/21 10:56:54;;;;;;;;;;;;;;;33.76;27.64;95549.78;5055301;28;20035;-83
2021/06/21 10:59:27;;;;;;;2.45;1.20;;;;;;;33.70;28.00;95540.16;5060675;28;19983;-82
2021/06/21 11:01:59;;;;;;;4.80;1.50;;;;;;;33.62;29.64;95544.50;5042638;28;20068;-82
2021/06/21 11:07:08;;;;;;;6.07;2.55;;;;;;;34.15;28.66;95545.19;5050670;28;20788;-82
2021/06/21 11:09:49;;;;;;;4.75;1.30;;;;;;;35.36;26.21;95546.44;5065707;28;20503;-83
2021/06/21 11:12:20;;;;;;;3.80;1.40;;;;;;;35.19;26.04;95537.25;5047690;28;20175;-82
2021/06/21 11:15:11;;;;;;;4.60;1.40;;;;;;;34.69;28.13;95531.78;5040579;28;20091;-82
2021/06/21 11:17:45;;;;;;;3.05;1.10;;;;;;;33.92;28.83;95536.41;5059976;28;20421;-81
2021/06/21 11:20:33;;;;;;;4.55;1.45;;;;;;;33.79;27.48;95543.66;5055970;28;20028;-83
2021/06/21 11:23:01;;;;;;;3.38;1.20;;;;;;;34.09;28.17;95546.50;5036272;28;20037;-81
2021/06/21 11:25:40;;;;;;;4.38;1.33;;;;;;;34.89;27.64;95544.66;5056355;28;20036;-81
2021/06/21 11:28:07;;;;;;;3.33;1.13;;;;;;;34.22;30.65;95542.75;5047574;28;20064;-80
2021/06/21 11:30:42;;;;;;;2.22;1.10;;;;;;;33.39;28.67;95543.88;5046674;28;20427;-81
2021/06/21 11:33:09;;;;;;;2.65;1.40;;;;;;;34.25;26.54;95542.13;5056578;28;20497;-81
2021/06/21 11:35:58;;;;;;;5.07;1.73;;;;;;;33.65;28.57;95540.34;5059360;28;20032;-81
2021/06/21 11:38:25;;;;;;;4.75;1.30;;;;;;;33.25;28.77;95546.75;5048143;28;20096;-81
2021/06/21 11:41:22;;;;;;;5.40;1.33;;;;;;;33.29;28.52;95533.28;5049091;28;20028;-80